sensor_id;sensor_type;location;lat;lon;timestamp;P1;durP1;ratioP1;P2;durP2;ratioP2
51614;SDS011;37695;52.960;6.188;2022-10-31T00:01:32;12.07;;;7.07;;
51614;SDS011;37695;52.960;6.188;2022-10-31T00:03:59;10.07;;;7.03;;
51614;SDS011;37695;52.960;6.188;2022-10-31T00:06:25;10.65;;;7.60;;
51614;SDS011;37695;52.960;6.188;2022-10-31T00:08:55;10.70;;;6.57;;
51614;SDS011;37695;52.960;6.188;2022-10-31T00:11:23;10.13;;;7.22;;
51614;SDS011;37695;52.960;6.188;2022-10-31T00:13:49;10.32;;;7.15;;
51614;SDS011;37695;52.960;6.188;2022-10-31T00:16:16;11.13;;;6.93;;
51614;SDS011;37695;52.960;6.188;2022-10-31T00:18:44;10.15;;;7.00;;
51614;SDS011;37695;52.960;6.188;2022-10-31T00:21:12;13.30;;;7.00;;
51614;SDS011;37695;52.960;6.188;2022-10-31T00:23:38;11.35;;;6.97;;
51614;SDS011;37695;52.960;6.188;2022-10-31T00:26:03;9.88;;;6.80;;
51614;SDS011;37695;52.960;6.188;2022-10-31T00:28:30;9.93;;;7.20;;
51614;SDS011;37695;52.960;6.188;2022-10-31T00:31:04;11.05;;;7.65;;
51614;SDS011;37695;52.960;6.188;2022-10-31T00:33:32;10.57;;;7.25;;
51614;SDS011;37695;52.960;6.188;2022-10-31T00:35:58;10.85;;;6.53;;
51614;SDS011;37695;52.960;6.188;2022-10-31T00:38:24;10.48;;;6.50;;
51614;SDS011;37695;52.960;6.188;2022-10-31T00:40:50;10.70;;;7.35;;
51614;SDS011;37695;52.960;6.188;2022-10-31T00:43:15;11.63;;;7.53;;
51614;SDS011;37695;52.960;6.188;2022-10-31T00:45:41;10.75;;;7.05;;
51614;SDS011;37695;52.960;6.188;2022-10-31T00:48:07;10.75;;;6.85;;
51614;SDS011;37695;52.960;6.188;2022-10-31T00:50:33;9.50;;;7.32;;
51614;SDS011;37695;52.960;6.188;2022-10-31T00:52:59;10.55;;;6.75;;
51614;SDS011;37695;52.960;6.188;2022-10-31T00:55:24;11.18;;;7.32;;
51614;SDS011;37695;52.960;6.188;2022-10-31T00:57:50;9.95;;;6.70;;
51614;SDS011;37695;52.960;6.188;2022-10-31T01:00:16;11.38;;;7.35;;
51614;SDS011;37695;52.960;6.188;2022-10-31T01:02:41;11.02;;;7.15;;
51614;SDS011;37695;52.960;6.188;2022-10-31T01:05:07;9.68;;;6.90;;
51614;SDS011;37695;52.960;6.188;2022-10-31T01:07:36;11.10;;;6.90;;
51614;SDS011;37695;52.960;6.188;2022-10-31T01:10:03;9.13;;;6.47;;
51614;SDS011;37695;52.960;6.188;2022-10-31T01:12:29;12.25;;;7.15;;
51614;SDS011;37695;52.960;6.188;2022-10-31T01:15:00;11.35;;;6.60;;
51614;SDS011;37695;52.960;6.188;2022-10-31T01:17:25;12.68;;;7.22;;
51614;SDS011;37695;52.960;6.188;2022-10-31T01:19:51;10.48;;;7.32;;
51614;SDS011;37695;52.960;6.188;2022-10-31T01:22:16;12.13;;;7.32;;
51614;SDS011;37695;52.960;6.188;2022-10-31T01:24:42;11.73;;;6.72;;
51614;SDS011;37695;52.960;6.188;2022-10-31T01:27:07;10.13;;;7.22;;
51614;SDS011;37695;52.960;6.188;2022-10-31T01:29:33;11.32;;;7.03;;
51614;SDS011;37695;52.960;6.188;2022-10-31T01:31:58;10.05;;;6.55;;
51614;SDS011;37695;52.960;6.188;2022-10-31T01:34:24;13.15;;;7.88;;
51614;SDS011;37695;52.960;6.188;2022-10-31T01:36:49;10.27;;;7.45;;
51614;SDS011;37695;52.960;6.188;2022-10-31T01:39:17;12.23;;;6.93;;
51614;SDS011;37695;52.960;6.188;2022-10-31T01:41:45;10.45;;;7.38;;
51614;SDS011;37695;52.960;6.188;2022-10-31T01:46:52;12.35;;;7.55;;
51614;SDS011;37695;52.960;6.188;2022-10-31T01:49:24;9.30;;;7.03;;
51614;SDS011;37695;52.960;6.188;2022-10-31T01:51:58;9.43;;;6.85;;
51614;SDS011;37695;52.960;6.188;2022-10-31T01:54:34;9.65;;;7.25;;
51614;SDS011;37695;52.960;6.188;2022-10-31T01:57:04;9.95;;;6.88;;
51614;SDS011;37695;52.960;6.188;2022-10-31T01:59:33;10.23;;;7.18;;
51614;SDS011;37695;52.960;6.188;2022-10-31T02:02:03;10.32;;;7.43;;
51614;SDS011;37695;52.960;6.188;2022-10-31T02:04:29;10.05;;;7.50;;
51614;SDS011;37695;52.960;6.188;2022-10-31T02:06:56;11.40;;;7.68;;
51614;SDS011;37695;52.960;6.188;2022-10-31T02:09:28;13.85;;;7.72;;
51614;SDS011;37695;52.960;6.188;2022-10-31T02:11:56;10.98;;;7.25;;
51614;SDS011;37695;52.960;6.188;2022-10-31T02:14:24;11.73;;;7.82;;
51614;SDS011;37695;52.960;6.188;2022-10-31T02:16:55;11.02;;;6.93;;
51614;SDS011;37695;52.960;6.188;2022-10-31T02:19:34;11.45;;;8.07;;
51614;SDS011;37695;52.960;6.188;2022-10-31T02:22:16;8.70;;;6.75;;
51614;SDS011;37695;52.960;6.188;2022-10-31T02:30:24;10.63;;;7.45;;
51614;SDS011;37695;52.960;6.188;2022-10-31T02:36:05;11.95;;;7.75;;
51614;SDS011;37695;52.960;6.188;2022-10-31T02:39:07;12.02;;;7.72;;
51614;SDS011;37695;52.960;6.188;2022-10-31T02:44:22;11.00;;;7.57;;
51614;SDS011;37695;52.960;6.188;2022-10-31T02:47:14;9.50;;;7.55;;
51614;SDS011;37695;52.960;6.188;2022-10-31T02:49:55;13.93;;;7.32;;
51614;SDS011;37695;52.960;6.188;2022-10-31T02:52:29;10.35;;;7.32;;
51614;SDS011;37695;52.960;6.188;2022-10-31T02:54:57;10.32;;;7.30;;
51614;SDS011;37695;52.960;6.188;2022-10-31T02:57:26;11.15;;;7.03;;
51614;SDS011;37695;52.960;6.188;2022-10-31T02:59:57;12.73;;;6.75;;
51614;SDS011;37695;52.960;6.188;2022-10-31T03:02:46;12.98;;;7.50;;
51614;SDS011;37695;52.960;6.188;2022-10-31T03:05:22;9.50;;;7.18;;
51614;SDS011;37695;52.960;6.188;2022-10-31T03:08:06;9.90;;;6.70;;
51614;SDS011;37695;52.960;6.188;2022-10-31T03:10:35;9.85;;;7.57;;
51614;SDS011;37695;52.960;6.188;2022-10-31T03:15:51;10.60;;;7.00;;
51614;SDS011;37695;52.960;6.188;2022-10-31T03:21:01;10.30;;;7.38;;
51614;SDS011;37695;52.960;6.188;2022-10-31T03:23:33;11.93;;;7.72;;
51614;SDS011;37695;52.960;6.188;2022-10-31T03:26:01;13.85;;;7.90;;
51614;SDS011;37695;52.960;6.188;2022-10-31T03:28:30;9.95;;;7.35;;
51614;SDS011;37695;52.960;6.188;2022-10-31T03:31:01;12.45;;;8.18;;
51614;SDS011;37695;52.960;6.188;2022-10-31T03:33:30;10.00;;;7.93;;
51614;SDS011;37695;52.960;6.188;2022-10-31T03:35:59;13.38;;;7.93;;
51614;SDS011;37695;52.960;6.188;2022-10-31T03:38:27;10.68;;;7.60;;
51614;SDS011;37695;52.960;6.188;2022-10-31T03:40:54;10.80;;;8.30;;
51614;SDS011;37695;52.960;6.188;2022-10-31T03:43:24;10.95;;;7.95;;
51614;SDS011;37695;52.960;6.188;2022-10-31T03:45:57;10.68;;;7.72;;
51614;SDS011;37695;52.960;6.188;2022-10-31T03:48:23;15.73;;;7.95;;
51614;SDS011;37695;52.960;6.188;2022-10-31T03:53:26;9.85;;;7.25;;
51614;SDS011;37695;52.960;6.188;2022-10-31T03:55:54;11.50;;;7.78;;
51614;SDS011;37695;52.960;6.188;2022-10-31T03:58:35;12.57;;;7.88;;
51614;SDS011;37695;52.960;6.188;2022-10-31T04:01:05;10.23;;;7.20;;
51614;SDS011;37695;52.960;6.188;2022-10-31T04:03:34;11.98;;;7.78;;
51614;SDS011;37695;52.960;6.188;2022-10-31T04:06:03;8.18;;;7.20;;
51614;SDS011;37695;52.960;6.188;2022-10-31T04:08:32;11.90;;;7.63;;
51614;SDS011;37695;52.960;6.188;2022-10-31T04:11:05;9.50;;;6.80;;
51614;SDS011;37695;52.960;6.188;2022-10-31T04:13:33;11.02;;;7.80;;
51614;SDS011;37695;52.960;6.188;2022-10-31T04:16:02;11.48;;;7.35;;
51614;SDS011;37695;52.960;6.188;2022-10-31T04:18:28;8.90;;;7.00;;
51614;SDS011;37695;52.960;6.188;2022-10-31T04:21:03;9.13;;;7.10;;
51614;SDS011;37695;52.960;6.188;2022-10-31T04:23:31;10.50;;;6.85;;
51614;SDS011;37695;52.960;6.188;2022-10-31T04:25:58;9.95;;;7.35;;
51614;SDS011;37695;52.960;6.188;2022-10-31T04:28:23;10.07;;;7.75;;
51614;SDS011;37695;52.960;6.188;2022-10-31T04:30:49;11.63;;;7.40;;
51614;SDS011;37695;52.960;6.188;2022-10-31T04:33:15;11.02;;;7.38;;
51614;SDS011;37695;52.960;6.188;2022-10-31T04:35:41;10.13;;;7.18;;
51614;SDS011;37695;52.960;6.188;2022-10-31T04:38:06;11.05;;;7.75;;
51614;SDS011;37695;52.960;6.188;2022-10-31T04:40:33;10.90;;;7.63;;
51614;SDS011;37695;52.960;6.188;2022-10-31T04:42:58;12.27;;;7.20;;
51614;SDS011;37695;52.960;6.188;2022-10-31T04:45:24;10.13;;;7.30;;
51614;SDS011;37695;52.960;6.188;2022-10-31T04:47:50;12.27;;;7.53;;
51614;SDS011;37695;52.960;6.188;2022-10-31T04:50:15;9.25;;;7.13;;
51614;SDS011;37695;52.960;6.188;2022-10-31T04:52:41;10.05;;;7.05;;
51614;SDS011;37695;52.960;6.188;2022-10-31T04:55:08;8.55;;;6.60;;
51614;SDS011;37695;52.960;6.188;2022-10-31T04:57:41;8.98;;;6.72;;
51614;SDS011;37695;52.960;6.188;2022-10-31T05:00:07;9.27;;;7.05;;
51614;SDS011;37695;52.960;6.188;2022-10-31T05:02:34;8.75;;;6.53;;
51614;SDS011;37695;52.960;6.188;2022-10-31T05:05:06;11.10;;;7.90;;
51614;SDS011;37695;52.960;6.188;2022-10-31T05:07:32;10.02;;;7.18;;
51614;SDS011;37695;52.960;6.188;2022-10-31T05:09:57;13.30;;;7.10;;
51614;SDS011;37695;52.960;6.188;2022-10-31T05:12:23;10.90;;;7.38;;
51614;SDS011;37695;52.960;6.188;2022-10-31T05:14:48;8.95;;;7.50;;
51614;SDS011;37695;52.960;6.188;2022-10-31T05:17:14;12.45;;;7.13;;
51614;SDS011;37695;52.960;6.188;2022-10-31T05:19:39;13.52;;;7.10;;
51614;SDS011;37695;52.960;6.188;2022-10-31T05:22:05;9.85;;;6.93;;
51614;SDS011;37695;52.960;6.188;2022-10-31T05:24:30;10.43;;;7.20;;
51614;SDS011;37695;52.960;6.188;2022-10-31T05:26:56;9.07;;;7.43;;
51614;SDS011;37695;52.960;6.188;2022-10-31T05:29:21;9.30;;;7.05;;
51614;SDS011;37695;52.960;6.188;2022-10-31T05:31:47;10.15;;;7.30;;
51614;SDS011;37695;52.960;6.188;2022-10-31T05:34:12;10.63;;;7.38;;
51614;SDS011;37695;52.960;6.188;2022-10-31T05:36:38;10.30;;;8.10;;
51614;SDS011;37695;52.960;6.188;2022-10-31T05:39:03;9.10;;;7.05;;
51614;SDS011;37695;52.960;6.188;2022-10-31T05:41:29;12.40;;;8.10;;
51614;SDS011;37695;52.960;6.188;2022-10-31T05:43:54;11.15;;;7.78;;
51614;SDS011;37695;52.960;6.188;2022-10-31T05:46:20;12.30;;;7.90;;
51614;SDS011;37695;52.960;6.188;2022-10-31T05:48:45;10.52;;;7.40;;
51614;SDS011;37695;52.960;6.188;2022-10-31T05:51:12;9.35;;;7.75;;
51614;SDS011;37695;52.960;6.188;2022-10-31T05:53:37;10.70;;;7.68;;
51614;SDS011;37695;52.960;6.188;2022-10-31T05:56:03;10.07;;;8.10;;
51614;SDS011;37695;52.960;6.188;2022-10-31T05:58:28;10.88;;;7.43;;
51614;SDS011;37695;52.960;6.188;2022-10-31T06:00:54;13.02;;;7.35;;
51614;SDS011;37695;52.960;6.188;2022-10-31T06:03:19;12.00;;;7.57;;
51614;SDS011;37695;52.960;6.188;2022-10-31T06:05:45;11.10;;;7.90;;
51614;SDS011;37695;52.960;6.188;2022-10-31T06:08:10;11.18;;;8.15;;
51614;SDS011;37695;52.960;6.188;2022-10-31T06:10:36;10.30;;;8.05;;
51614;SDS011;37695;52.960;6.188;2022-10-31T06:13:01;10.25;;;7.97;;
51614;SDS011;37695;52.960;6.188;2022-10-31T06:15:27;10.02;;;7.03;;
51614;SDS011;37695;52.960;6.188;2022-10-31T06:18:03;10.20;;;7.47;;
51614;SDS011;37695;52.960;6.188;2022-10-31T06:20:29;11.73;;;8.18;;
51614;SDS011;37695;52.960;6.188;2022-10-31T06:22:55;13.32;;;8.07;;
51614;SDS011;37695;52.960;6.188;2022-10-31T06:25:21;11.05;;;7.78;;
51614;SDS011;37695;52.960;6.188;2022-10-31T06:27:46;8.55;;;7.25;;
51614;SDS011;37695;52.960;6.188;2022-10-31T06:30:12;11.40;;;7.07;;
51614;SDS011;37695;52.960;6.188;2022-10-31T06:32:37;8.00;;;6.05;;
51614;SDS011;37695;52.960;6.188;2022-10-31T06:35:03;9.25;;;6.55;;
51614;SDS011;37695;52.960;6.188;2022-10-31T06:37:29;9.38;;;7.43;;
51614;SDS011;37695;52.960;6.188;2022-10-31T06:39:54;10.57;;;7.63;;
51614;SDS011;37695;52.960;6.188;2022-10-31T06:42:20;9.32;;;7.30;;
51614;SDS011;37695;52.960;6.188;2022-10-31T06:44:45;8.90;;;7.00;;
51614;SDS011;37695;52.960;6.188;2022-10-31T06:47:11;9.00;;;7.22;;
51614;SDS011;37695;52.960;6.188;2022-10-31T06:49:36;9.15;;;6.22;;
51614;SDS011;37695;52.960;6.188;2022-10-31T06:52:02;10.57;;;6.82;;
51614;SDS011;37695;52.960;6.188;2022-10-31T06:54:28;10.23;;;7.47;;
51614;SDS011;37695;52.960;6.188;2022-10-31T06:56:53;10.68;;;7.05;;
51614;SDS011;37695;52.960;6.188;2022-10-31T06:59:19;10.90;;;6.20;;
51614;SDS011;37695;52.960;6.188;2022-10-31T07:01:44;9.98;;;7.05;;
51614;SDS011;37695;52.960;6.188;2022-10-31T07:04:10;9.05;;;6.40;;
51614;SDS011;37695;52.960;6.188;2022-10-31T07:06:36;9.77;;;6.30;;
51614;SDS011;37695;52.960;6.188;2022-10-31T07:09:01;8.90;;;6.70;;
51614;SDS011;37695;52.960;6.188;2022-10-31T07:11:27;11.98;;;8.10;;
51614;SDS011;37695;52.960;6.188;2022-10-31T07:13:52;7.88;;;6.40;;
51614;SDS011;37695;52.960;6.188;2022-10-31T07:16:18;9.10;;;6.82;;
51614;SDS011;37695;52.960;6.188;2022-10-31T07:18:43;9.88;;;6.82;;
51614;SDS011;37695;52.960;6.188;2022-10-31T07:21:09;8.32;;;6.97;;
51614;SDS011;37695;52.960;6.188;2022-10-31T07:23:34;10.07;;;6.97;;
51614;SDS011;37695;52.960;6.188;2022-10-31T07:26:00;9.32;;;7.22;;
51614;SDS011;37695;52.960;6.188;2022-10-31T07:28:26;8.95;;;7.30;;
51614;SDS011;37695;52.960;6.188;2022-10-31T07:30:53;10.75;;;7.97;;
51614;SDS011;37695;52.960;6.188;2022-10-31T07:33:19;8.45;;;7.00;;
51614;SDS011;37695;52.960;6.188;2022-10-31T07:35:45;10.60;;;7.22;;
51614;SDS011;37695;52.960;6.188;2022-10-31T07:38:11;8.32;;;7.03;;
51614;SDS011;37695;52.960;6.188;2022-10-31T07:40:38;12.55;;;7.90;;
51614;SDS011;37695;52.960;6.188;2022-10-31T07:43:05;11.60;;;8.00;;
51614;SDS011;37695;52.960;6.188;2022-10-31T07:45:30;9.52;;;7.30;;
51614;SDS011;37695;52.960;6.188;2022-10-31T07:47:56;10.40;;;7.05;;
51614;SDS011;37695;52.960;6.188;2022-10-31T07:50:23;8.52;;;6.43;;
51614;SDS011;37695;52.960;6.188;2022-10-31T07:53:03;8.80;;;7.35;;
51614;SDS011;37695;52.960;6.188;2022-10-31T07:55:33;8.90;;;6.82;;
51614;SDS011;37695;52.960;6.188;2022-10-31T07:57:59;10.43;;;7.40;;
51614;SDS011;37695;52.960;6.188;2022-10-31T08:00:27;9.23;;;7.47;;
51614;SDS011;37695;52.960;6.188;2022-10-31T08:05:25;10.10;;;7.50;;
51614;SDS011;37695;52.960;6.188;2022-10-31T08:07:51;9.80;;;7.30;;
51614;SDS011;37695;52.960;6.188;2022-10-31T08:10:17;9.30;;;6.72;;
51614;SDS011;37695;52.960;6.188;2022-10-31T08:12:43;9.48;;;7.40;;
51614;SDS011;37695;52.960;6.188;2022-10-31T08:15:08;9.38;;;7.65;;
51614;SDS011;37695;52.960;6.188;2022-10-31T08:17:34;10.50;;;7.47;;
51614;SDS011;37695;52.960;6.188;2022-10-31T08:20:01;10.25;;;7.38;;
51614;SDS011;37695;52.960;6.188;2022-10-31T08:22:27;9.82;;;7.60;;
51614;SDS011;37695;52.960;6.188;2022-10-31T08:24:52;8.65;;;7.00;;
51614;SDS011;37695;52.960;6.188;2022-10-31T08:27:18;9.45;;;7.53;;
51614;SDS011;37695;52.960;6.188;2022-10-31T08:29:43;10.27;;;8.15;;
51614;SDS011;37695;52.960;6.188;2022-10-31T08:32:09;8.98;;;7.97;;
51614;SDS011;37695;52.960;6.188;2022-10-31T08:34:34;12.35;;;8.02;;
51614;SDS011;37695;52.960;6.188;2022-10-31T08:37:00;9.60;;;8.13;;
51614;SDS011;37695;52.960;6.188;2022-10-31T08:39:25;9.05;;;7.47;;
51614;SDS011;37695;52.960;6.188;2022-10-31T08:41:51;10.60;;;8.25;;
51614;SDS011;37695;52.960;6.188;2022-10-31T08:44:16;11.27;;;8.07;;
51614;SDS011;37695;52.960;6.188;2022-10-31T08:46:42;10.25;;;7.95;;
51614;SDS011;37695;52.960;6.188;2022-10-31T08:49:07;10.93;;;8.60;;
51614;SDS011;37695;52.960;6.188;2022-10-31T08:51:33;11.35;;;8.80;;
51614;SDS011;37695;52.960;6.188;2022-10-31T08:53:58;11.55;;;8.18;;
51614;SDS011;37695;52.960;6.188;2022-10-31T08:56:24;11.73;;;8.52;;
51614;SDS011;37695;52.960;6.188;2022-10-31T08:58:49;11.23;;;8.48;;
51614;SDS011;37695;52.960;6.188;2022-10-31T09:01:17;11.20;;;8.82;;
51614;SDS011;37695;52.960;6.188;2022-10-31T09:03:42;9.73;;;7.78;;
51614;SDS011;37695;52.960;6.188;2022-10-31T09:06:08;11.25;;;9.07;;
51614;SDS011;37695;52.960;6.188;2022-10-31T09:08:34;12.02;;;8.65;;
51614;SDS011;37695;52.960;6.188;2022-10-31T09:11:00;11.00;;;8.60;;
51614;SDS011;37695;52.960;6.188;2022-10-31T09:13:26;12.07;;;8.80;;
51614;SDS011;37695;52.960;6.188;2022-10-31T09:15:52;11.88;;;8.55;;
51614;SDS011;37695;52.960;6.188;2022-10-31T09:18:21;10.63;;;8.20;;
51614;SDS011;37695;52.960;6.188;2022-10-31T09:20:48;10.05;;;8.40;;
51614;SDS011;37695;52.960;6.188;2022-10-31T09:23:15;12.27;;;9.35;;
51614;SDS011;37695;52.960;6.188;2022-10-31T09:25:42;11.10;;;9.27;;
51614;SDS011;37695;52.960;6.188;2022-10-31T09:28:09;12.77;;;9.05;;
51614;SDS011;37695;52.960;6.188;2022-10-31T09:30:38;11.15;;;9.05;;
51614;SDS011;37695;52.960;6.188;2022-10-31T09:33:13;12.32;;;9.00;;
51614;SDS011;37695;52.960;6.188;2022-10-31T09:35:40;11.43;;;9.77;;
51614;SDS011;37695;52.960;6.188;2022-10-31T09:38:09;13.23;;;10.07;;
51614;SDS011;37695;52.960;6.188;2022-10-31T09:40:41;14.95;;;11.05;;
51614;SDS011;37695;52.960;6.188;2022-10-31T09:52:01;14.68;;;11.93;;
51614;SDS011;37695;52.960;6.188;2022-10-31T09:54:37;14.55;;;11.95;;
51614;SDS011;37695;52.960;6.188;2022-10-31T09:57:10;13.95;;;12.00;;
51614;SDS011;37695;52.960;6.188;2022-10-31T09:59:39;13.80;;;11.75;;
51614;SDS011;37695;52.960;6.188;2022-10-31T10:05:05;14.55;;;12.38;;
51614;SDS011;37695;52.960;6.188;2022-10-31T10:19:11;16.27;;;13.57;;
51614;SDS011;37695;52.960;6.188;2022-10-31T10:22:10;17.30;;;12.10;;
51614;SDS011;37695;52.960;6.188;2022-10-31T10:27:23;16.05;;;12.32;;
51614;SDS011;37695;52.960;6.188;2022-10-31T10:30:13;14.65;;;12.80;;
51614;SDS011;37695;52.960;6.188;2022-10-31T10:32:43;15.30;;;12.63;;
51614;SDS011;37695;52.960;6.188;2022-10-31T10:35:23;16.70;;;13.63;;
51614;SDS011;37695;52.960;6.188;2022-10-31T10:37:56;15.65;;;13.40;;
51614;SDS011;37695;52.960;6.188;2022-10-31T10:40:27;17.42;;;13.30;;
51614;SDS011;37695;52.960;6.188;2022-10-31T10:42:56;15.82;;;13.05;;
51614;SDS011;37695;52.960;6.188;2022-10-31T10:48:55;15.30;;;11.98;;
51614;SDS011;37695;52.960;6.188;2022-10-31T10:57:20;13.02;;;10.68;;
51614;SDS011;37695;52.960;6.188;2022-10-31T10:59:56;12.23;;;10.40;;
51614;SDS011;37695;52.960;6.188;2022-10-31T11:02:25;12.95;;;9.88;;
51614;SDS011;37695;52.960;6.188;2022-10-31T11:04:53;11.60;;;9.52;;
51614;SDS011;37695;52.960;6.188;2022-10-31T11:07:20;12.60;;;10.05;;
51614;SDS011;37695;52.960;6.188;2022-10-31T11:09:46;13.93;;;10.50;;
51614;SDS011;37695;52.960;6.188;2022-10-31T11:12:22;12.52;;;9.52;;
51614;SDS011;37695;52.960;6.188;2022-10-31T11:14:54;14.13;;;9.60;;
51614;SDS011;37695;52.960;6.188;2022-10-31T11:17:39;11.20;;;9.40;;
51614;SDS011;37695;52.960;6.188;2022-10-31T11:22:37;12.20;;;9.60;;
51614;SDS011;37695;52.960;6.188;2022-10-31T11:25:25;10.45;;;8.65;;
51614;SDS011;37695;52.960;6.188;2022-10-31T11:28:10;11.77;;;9.95;;
51614;SDS011;37695;52.960;6.188;2022-10-31T11:30:42;11.32;;;9.15;;
51614;SDS011;37695;52.960;6.188;2022-10-31T11:33:19;11.73;;;9.07;;
51614;SDS011;37695;52.960;6.188;2022-10-31T11:35:59;12.40;;;9.45;;
51614;SDS011;37695;52.960;6.188;2022-10-31T11:38:30;12.30;;;10.00;;
51614;SDS011;37695;52.960;6.188;2022-10-31T11:41:06;12.30;;;9.23;;
51614;SDS011;37695;52.960;6.188;2022-10-31T11:43:57;13.88;;;9.75;;
51614;SDS011;37695;52.960;6.188;2022-10-31T11:46:37;11.63;;;9.20;;
51614;SDS011;37695;52.960;6.188;2022-10-31T11:49:05;12.88;;;9.88;;
51614;SDS011;37695;52.960;6.188;2022-10-31T11:51:42;13.75;;;9.48;;
51614;SDS011;37695;52.960;6.188;2022-10-31T11:54:19;12.18;;;9.35;;
51614;SDS011;37695;52.960;6.188;2022-10-31T11:56:47;12.15;;;8.98;;
51614;SDS011;37695;52.960;6.188;2022-10-31T11:59:29;16.17;;;9.15;;
51614;SDS011;37695;52.960;6.188;2022-10-31T12:01:57;11.70;;;9.13;;
51614;SDS011;37695;52.960;6.188;2022-10-31T12:04:32;14.07;;;9.07;;
51614;SDS011;37695;52.960;6.188;2022-10-31T12:07:05;12.27;;;8.82;;
51614;SDS011;37695;52.960;6.188;2022-10-31T12:09:33;10.30;;;8.70;;
51614;SDS011;37695;52.960;6.188;2022-10-31T12:12:11;10.90;;;8.40;;
51614;SDS011;37695;52.960;6.188;2022-10-31T12:20:28;11.05;;;8.15;;
51614;SDS011;37695;52.960;6.188;2022-10-31T12:23:19;9.95;;;7.90;;
51614;SDS011;37695;52.960;6.188;2022-10-31T12:29:49;9.35;;;7.00;;
51614;SDS011;37695;52.960;6.188;2022-10-31T12:37:50;9.73;;;7.63;;
51614;SDS011;37695;52.960;6.188;2022-10-31T12:40:49;9.30;;;7.15;;
51614;SDS011;37695;52.960;6.188;2022-10-31T12:43:36;10.90;;;6.78;;
51614;SDS011;37695;52.960;6.188;2022-10-31T12:57:58;8.57;;;5.60;;
51614;SDS011;37695;52.960;6.188;2022-10-31T13:00:29;8.50;;;5.15;;
51614;SDS011;37695;52.960;6.188;2022-10-31T13:03:03;7.82;;;4.65;;
51614;SDS011;37695;52.960;6.188;2022-10-31T13:05:36;7.68;;;4.20;;
51614;SDS011;37695;52.960;6.188;2022-10-31T13:08:12;7.65;;;4.68;;
51614;SDS011;37695;52.960;6.188;2022-10-31T13:10:49;9.23;;;4.95;;
51614;SDS011;37695;52.960;6.188;2022-10-31T13:13:32;9.00;;;4.38;;
51614;SDS011;37695;52.960;6.188;2022-10-31T13:18:47;8.50;;;4.60;;
51614;SDS011;37695;52.960;6.188;2022-10-31T13:21:47;9.93;;;4.38;;
51614;SDS011;37695;52.960;6.188;2022-10-31T13:24:16;8.93;;;4.85;;
51614;SDS011;37695;52.960;6.188;2022-10-31T13:26:50;6.25;;;4.30;;
51614;SDS011;37695;52.960;6.188;2022-10-31T13:32:07;7.78;;;4.78;;
51614;SDS011;37695;52.960;6.188;2022-10-31T13:34:37;6.88;;;4.53;;
51614;SDS011;37695;52.960;6.188;2022-10-31T13:40:06;7.53;;;4.68;;
51614;SDS011;37695;52.960;6.188;2022-10-31T13:45:25;8.10;;;4.30;;
51614;SDS011;37695;52.960;6.188;2022-10-31T13:48:01;7.35;;;4.25;;
51614;SDS011;37695;52.960;6.188;2022-10-31T13:50:54;8.18;;;4.07;;
51614;SDS011;37695;52.960;6.188;2022-10-31T13:53:38;6.88;;;3.70;;
51614;SDS011;37695;52.960;6.188;2022-10-31T13:56:30;5.97;;;3.50;;
51614;SDS011;37695;52.960;6.188;2022-10-31T14:01:36;7.68;;;3.97;;
51614;SDS011;37695;52.960;6.188;2022-10-31T14:04:20;7.35;;;3.67;;
51614;SDS011;37695;52.960;6.188;2022-10-31T14:07:14;7.50;;;3.67;;
51614;SDS011;37695;52.960;6.188;2022-10-31T14:10:02;6.97;;;3.40;;
51614;SDS011;37695;52.960;6.188;2022-10-31T14:12:30;6.72;;;3.33;;
51614;SDS011;37695;52.960;6.188;2022-10-31T14:15:13;5.97;;;3.08;;
51614;SDS011;37695;52.960;6.188;2022-10-31T14:17:48;6.30;;;3.13;;
51614;SDS011;37695;52.960;6.188;2022-10-31T14:22:42;6.80;;;3.50;;
51614;SDS011;37695;52.960;6.188;2022-10-31T14:27:53;6.15;;;3.92;;
51614;SDS011;37695;52.960;6.188;2022-10-31T14:30:20;6.00;;;3.85;;
51614;SDS011;37695;52.960;6.188;2022-10-31T14:32:50;5.85;;;3.60;;
51614;SDS011;37695;52.960;6.188;2022-10-31T14:38:28;7.80;;;4.35;;
51614;SDS011;37695;52.960;6.188;2022-10-31T14:43:58;7.55;;;4.00;;
51614;SDS011;37695;52.960;6.188;2022-10-31T14:51:59;7.25;;;3.70;;
51614;SDS011;37695;52.960;6.188;2022-10-31T14:54:28;7.45;;;4.13;;
51614;SDS011;37695;52.960;6.188;2022-10-31T14:57:03;7.93;;;4.03;;
51614;SDS011;37695;52.960;6.188;2022-10-31T14:59:45;6.30;;;3.53;;
51614;SDS011;37695;52.960;6.188;2022-10-31T15:02:20;6.35;;;3.47;;
51614;SDS011;37695;52.960;6.188;2022-10-31T15:04:51;7.55;;;3.45;;
51614;SDS011;37695;52.960;6.188;2022-10-31T15:07:19;10.70;;;3.83;;
51614;SDS011;37695;52.960;6.188;2022-10-31T15:09:58;7.55;;;3.65;;
51614;SDS011;37695;52.960;6.188;2022-10-31T15:12:33;6.60;;;3.30;;
51614;SDS011;37695;52.960;6.188;2022-10-31T15:15:17;5.50;;;3.72;;
51614;SDS011;37695;52.960;6.188;2022-10-31T15:17:44;6.40;;;3.58;;
51614;SDS011;37695;52.960;6.188;2022-10-31T15:20:17;6.18;;;3.33;;
51614;SDS011;37695;52.960;6.188;2022-10-31T15:22:45;7.38;;;3.15;;
51614;SDS011;37695;52.960;6.188;2022-10-31T15:25:21;7.15;;;3.42;;
51614;SDS011;37695;52.960;6.188;2022-10-31T15:27:48;9.65;;;3.83;;
51614;SDS011;37695;52.960;6.188;2022-10-31T15:30:19;7.35;;;3.60;;
51614;SDS011;37695;52.960;6.188;2022-10-31T15:32:47;7.18;;;3.72;;
51614;SDS011;37695;52.960;6.188;2022-10-31T15:35:27;6.47;;;3.60;;
51614;SDS011;37695;52.960;6.188;2022-10-31T15:37:55;7.57;;;3.50;;
51614;SDS011;37695;52.960;6.188;2022-10-31T15:40:22;5.82;;;3.03;;
51614;SDS011;37695;52.960;6.188;2022-10-31T15:42:56;8.45;;;4.13;;
51614;SDS011;37695;52.960;6.188;2022-10-31T15:45:25;7.93;;;3.78;;
51614;SDS011;37695;52.960;6.188;2022-10-31T15:47:59;8.77;;;3.72;;
51614;SDS011;37695;52.960;6.188;2022-10-31T15:50:31;6.73;;;3.90;;
51614;SDS011;37695;52.960;6.188;2022-10-31T15:53:00;7.03;;;4.35;;
51614;SDS011;37695;52.960;6.188;2022-10-31T15:55:29;6.18;;;4.13;;
51614;SDS011;37695;52.960;6.188;2022-10-31T15:57:58;6.90;;;4.40;;
51614;SDS011;37695;52.960;6.188;2022-10-31T16:00:30;8.27;;;4.90;;
51614;SDS011;37695;52.960;6.188;2022-10-31T16:03:40;8.57;;;5.40;;
51614;SDS011;37695;52.960;6.188;2022-10-31T16:05:51;7.60;;;4.78;;
51614;SDS011;37695;52.960;6.188;2022-10-31T16:08:26;7.43;;;4.25;;
51614;SDS011;37695;52.960;6.188;2022-10-31T16:11:22;7.65;;;4.55;;
51614;SDS011;37695;52.960;6.188;2022-10-31T16:16:21;7.15;;;3.97;;
51614;SDS011;37695;52.960;6.188;2022-10-31T16:18:47;9.60;;;4.53;;
51614;SDS011;37695;52.960;6.188;2022-10-31T16:21:14;7.38;;;4.07;;
51614;SDS011;37695;52.960;6.188;2022-10-31T16:23:44;7.50;;;4.07;;
51614;SDS011;37695;52.960;6.188;2022-10-31T16:26:14;7.72;;;4.38;;
51614;SDS011;37695;52.960;6.188;2022-10-31T16:28:50;6.45;;;3.65;;
51614;SDS011;37695;52.960;6.188;2022-10-31T16:31:36;7.30;;;3.90;;
51614;SDS011;37695;52.960;6.188;2022-10-31T16:34:14;8.07;;;3.97;;
51614;SDS011;37695;52.960;6.188;2022-10-31T16:36:42;6.32;;;4.15;;
51614;SDS011;37695;52.960;6.188;2022-10-31T16:39:08;8.02;;;4.30;;
51614;SDS011;37695;52.960;6.188;2022-10-31T16:41:35;7.82;;;3.97;;
51614;SDS011;37695;52.960;6.188;2022-10-31T16:49:31;7.55;;;4.00;;
51614;SDS011;37695;52.960;6.188;2022-10-31T16:51:56;8.77;;;4.10;;
51614;SDS011;37695;52.960;6.188;2022-10-31T16:54:22;8.82;;;4.22;;
51614;SDS011;37695;52.960;6.188;2022-10-31T16:56:47;9.65;;;4.55;;
51614;SDS011;37695;52.960;6.188;2022-10-31T16:59:13;7.80;;;4.75;;
51614;SDS011;37695;52.960;6.188;2022-10-31T17:01:39;6.78;;;4.47;;
51614;SDS011;37695;52.960;6.188;2022-10-31T17:04:07;10.02;;;4.72;;